sensor_id;sensor_type;location;lat;lon;timestamp;P1;durP1;ratioP1;P2;durP2;ratioP2
37323;SDS011;23205;49.986;18.950;2022-08-06T00:01:59;35.00;;;19.75;;
37323;SDS011;23205;49.986;18.950;2022-08-06T00:07:00;31.35;;;20.38;;
37323;SDS011;23205;49.986;18.950;2022-08-06T00:12:02;30.30;;;19.55;;
37323;SDS011;23205;49.986;18.950;2022-08-06T00:17:04;31.55;;;20.85;;
37323;SDS011;23205;49.986;18.950;2022-08-06T00:22:05;31.77;;;19.63;;
37323;SDS011;23205;49.986;18.950;2022-08-06T00:27:06;30.00;;;18.33;;
37323;SDS011;23205;49.986;18.950;2022-08-06T00:32:07;31.48;;;17.83;;
37323;SDS011;23205;49.986;18.950;2022-08-06T00:37:07;26.42;;;17.27;;
37323;SDS011;23205;49.986;18.950;2022-08-06T00:42:08;24.33;;;15.00;;
37323;SDS011;23205;49.986;18.950;2022-08-06T00:47:09;27.80;;;15.63;;
37323;SDS011;23205;49.986;18.950;2022-08-06T00:52:10;22.80;;;15.32;;
37323;SDS011;23205;49.986;18.950;2022-08-06T00:57:11;23.52;;;15.75;;
37323;SDS011;23205;49.986;18.950;2022-08-06T01:02:11;22.42;;;14.65;;
37323;SDS011;23205;49.986;18.950;2022-08-06T01:07:12;24.75;;;14.60;;
37323;SDS011;23205;49.986;18.950;2022-08-06T01:12:13;23.05;;;14.52;;
37323;SDS011;23205;49.986;18.950;2022-08-06T01:17:15;20.45;;;12.85;;
37323;SDS011;23205;49.986;18.950;2022-08-06T01:33:15;20.42;;;12.52;;
37323;SDS011;23205;49.986;18.950;2022-08-06T01:43:49;16.23;;;11.05;;
37323;SDS011;23205;49.986;18.950;2022-08-06T01:48:50;17.90;;;10.90;;
37323;SDS011;23205;49.986;18.950;2022-08-06T01:53:51;15.88;;;10.23;;
37323;SDS011;23205;49.986;18.950;2022-08-06T01:58:54;14.35;;;10.15;;
37323;SDS011;23205;49.986;18.950;2022-08-06T02:03:57;15.93;;;9.85;;
37323;SDS011;23205;49.986;18.950;2022-08-06T02:09:01;17.75;;;9.73;;
37323;SDS011;23205;49.986;18.950;2022-08-06T02:14:07;14.10;;;8.30;;
37323;SDS011;23205;49.986;18.950;2022-08-06T02:19:09;13.70;;;8.43;;
37323;SDS011;23205;49.986;18.950;2022-08-06T02:24:13;18.02;;;8.75;;
37323;SDS011;23205;49.986;18.950;2022-08-06T02:29:16;17.10;;;7.95;;
37323;SDS011;23205;49.986;18.950;2022-08-06T02:34:19;19.17;;;8.68;;
37323;SDS011;23205;49.986;18.950;2022-08-06T02:49:50;11.65;;;6.30;;
37323;SDS011;23205;49.986;18.950;2022-08-06T02:55:05;11.73;;;6.95;;
37323;SDS011;23205;49.986;18.950;2022-08-06T03:00:16;10.82;;;6.28;;
37323;SDS011;23205;49.986;18.950;2022-08-06T03:05:18;12.73;;;6.13;;
37323;SDS011;23205;49.986;18.950;2022-08-06T03:10:22;12.57;;;6.15;;
37323;SDS011;23205;49.986;18.950;2022-08-06T03:15:25;10.90;;;5.72;;
37323;SDS011;23205;49.986;18.950;2022-08-06T03:20:28;11.27;;;5.78;;
37323;SDS011;23205;49.986;18.950;2022-08-06T03:25:31;11.90;;;5.65;;
37323;SDS011;23205;49.986;18.950;2022-08-06T03:30:33;11.77;;;5.63;;
37323;SDS011;23205;49.986;18.950;2022-08-06T03:35:34;8.90;;;5.28;;
37323;SDS011;23205;49.986;18.950;2022-08-06T03:40:37;8.68;;;5.75;;
37323;SDS011;23205;49.986;18.950;2022-08-06T03:45:46;10.77;;;5.93;;
37323;SDS011;23205;49.986;18.950;2022-08-06T03:50:51;10.02;;;5.40;;
37323;SDS011;23205;49.986;18.950;2022-08-06T03:55:55;9.10;;;5.47;;
37323;SDS011;23205;49.986;18.950;2022-08-06T04:00:59;10.35;;;5.38;;
37323;SDS011;23205;49.986;18.950;2022-08-06T04:06:04;11.63;;;6.22;;
37323;SDS011;23205;49.986;18.950;2022-08-06T04:11:09;9.38;;;4.88;;
37323;SDS011;23205;49.986;18.950;2022-08-06T04:16:12;9.35;;;5.35;;
37323;SDS011;23205;49.986;18.950;2022-08-06T04:21:18;8.38;;;5.68;;
37323;SDS011;23205;49.986;18.950;2022-08-06T04:26:22;7.35;;;5.00;;
37323;SDS011;23205;49.986;18.950;2022-08-06T04:31:28;8.38;;;4.72;;
37323;SDS011;23205;49.986;18.950;2022-08-06T04:36:30;6.97;;;4.78;;
37323;SDS011;23205;49.986;18.950;2022-08-06T04:41:31;9.57;;;5.00;;
37323;SDS011;23205;49.986;18.950;2022-08-06T04:46:32;7.45;;;4.65;;
37323;SDS011;23205;49.986;18.950;2022-08-06T04:51:34;6.78;;;4.82;;
37323;SDS011;23205;49.986;18.950;2022-08-06T04:56:35;7.43;;;5.28;;
37323;SDS011;23205;49.986;18.950;2022-08-06T05:01:37;8.50;;;4.80;;
37323;SDS011;23205;49.986;18.950;2022-08-06T05:12:01;9.65;;;4.85;;
37323;SDS011;23205;49.986;18.950;2022-08-06T05:17:04;8.70;;;4.35;;
37323;SDS011;23205;49.986;18.950;2022-08-06T05:22:10;8.77;;;4.68;;
37323;SDS011;23205;49.986;18.950;2022-08-06T05:27:13;9.30;;;5.05;;
37323;SDS011;23205;49.986;18.950;2022-08-06T05:32:14;7.30;;;4.57;;
37323;SDS011;23205;49.986;18.950;2022-08-06T05:37:16;7.60;;;4.78;;
37323;SDS011;23205;49.986;18.950;2022-08-06T05:42:17;7.13;;;4.50;;
37323;SDS011;23205;49.986;18.950;2022-08-06T05:47:19;8.95;;;4.85;;
37323;SDS011;23205;49.986;18.950;2022-08-06T05:52:24;6.55;;;4.30;;
37323;SDS011;23205;49.986;18.950;2022-08-06T05:57:50;9.80;;;4.97;;
37323;SDS011;23205;49.986;18.950;2022-08-06T06:02:56;9.52;;;4.72;;
37323;SDS011;23205;49.986;18.950;2022-08-06T06:07:59;7.93;;;4.63;;
37323;SDS011;23205;49.986;18.950;2022-08-06T06:13:01;6.60;;;4.63;;
37323;SDS011;23205;49.986;18.950;2022-08-06T06:39:48;6.63;;;4.40;;
37323;SDS011;23205;49.986;18.950;2022-08-06T06:50:22;7.28;;;4.22;;
37323;SDS011;23205;49.986;18.950;2022-08-06T06:55:33;7.00;;;3.70;;
37323;SDS011;23205;49.986;18.950;2022-08-06T07:00:37;6.30;;;3.75;;
37323;SDS011;23205;49.986;18.950;2022-08-06T07:05:39;9.00;;;3.85;;
37323;SDS011;23205;49.986;18.950;2022-08-06T07:10:43;6.60;;;3.47;;
37323;SDS011;23205;49.986;18.950;2022-08-06T07:15:45;5.35;;;3.50;;
37323;SDS011;23205;49.986;18.950;2022-08-06T07:20:47;9.60;;;3.65;;
37323;SDS011;23205;49.986;18.950;2022-08-06T07:25:49;6.75;;;3.53;;
37323;SDS011;23205;49.986;18.950;2022-08-06T07:30:50;6.40;;;2.70;;
37323;SDS011;23205;49.986;18.950;2022-08-06T07:35:55;4.20;;;2.08;;
37323;SDS011;23205;49.986;18.950;2022-08-06T07:41:03;3.45;;;0.93;;
37323;SDS011;23205;49.986;18.950;2022-08-06T07:46:06;1.60;;;0.70;;
37323;SDS011;23205;49.986;18.950;2022-08-06T07:51:07;3.60;;;0.77;;
37323;SDS011;23205;49.986;18.950;2022-08-06T07:56:09;1.77;;;0.50;;
37323;SDS011;23205;49.986;18.950;2022-08-06T08:01:10;1.20;;;0.30;;
37323;SDS011;23205;49.986;18.950;2022-08-06T08:06:12;2.90;;;0.40;;
37323;SDS011;23205;49.986;18.950;2022-08-06T08:11:24;1.50;;;0.30;;
37323;SDS011;23205;49.986;18.950;2022-08-06T08:16:26;1.80;;;0.35;;
37323;SDS011;23205;49.986;18.950;2022-08-06T08:21:29;1.67;;;0.30;;
37323;SDS011;23205;49.986;18.950;2022-08-06T08:26:30;3.60;;;2.00;;
37323;SDS011;23205;49.986;18.950;2022-08-06T08:31:31;1.67;;;0.30;;
37323;SDS011;23205;49.986;18.950;2022-08-06T08:36:32;5.50;;;0.65;;
37323;SDS011;23205;49.986;18.950;2022-08-06T08:41:36;4.78;;;0.40;;
37323;SDS011;23205;49.986;18.950;2022-08-06T08:46:41;5.00;;;0.80;;
37323;SDS011;23205;49.986;18.950;2022-08-06T08:51:43;5.15;;;1.33;;
37323;SDS011;23205;49.986;18.950;2022-08-06T08:56:46;1.73;;;0.57;;
37323;SDS011;23205;49.986;18.950;2022-08-06T09:01:48;1.80;;;0.63;;
37323;SDS011;23205;49.986;18.950;2022-08-06T09:06:50;4.30;;;0.60;;
37323;SDS011;23205;49.986;18.950;2022-08-06T09:11:57;2.92;;;0.60;;
37323;SDS011;23205;49.986;18.950;2022-08-06T09:17:02;2.13;;;0.45;;
37323;SDS011;23205;49.986;18.950;2022-08-06T09:22:05;2.53;;;0.60;;
37323;SDS011;23205;49.986;18.950;2022-08-06T09:27:10;2.40;;;0.77;;
37323;SDS011;23205;49.986;18.950;2022-08-06T09:37:47;1.83;;;0.70;;
37323;SDS011;23205;49.986;18.950;2022-08-06T09:42:49;1.50;;;0.73;;
37323;SDS011;23205;49.986;18.950;2022-08-06T09:48:01;2.78;;;0.60;;
37323;SDS011;23205;49.986;18.950;2022-08-06T09:53:04;1.58;;;0.70;;
37323;SDS011;23205;49.986;18.950;2022-08-06T09:58:05;2.92;;;1.23;;
37323;SDS011;23205;49.986;18.950;2022-08-06T10:03:08;2.75;;;1.05;;
37323;SDS011;23205;49.986;18.950;2022-08-06T10:08:13;2.92;;;0.85;;
37323;SDS011;23205;49.986;18.950;2022-08-06T10:24:19;2.45;;;0.80;;
37323;SDS011;23205;49.986;18.950;2022-08-06T10:29:23;3.10;;;0.85;;
37323;SDS011;23205;49.986;18.950;2022-08-06T10:34:34;4.13;;;1.23;;
37323;SDS011;23205;49.986;18.950;2022-08-06T10:39:58;11.07;;;6.25;;
37323;SDS011;23205;49.986;18.950;2022-08-06T10:45:03;6.72;;;1.92;;
37323;SDS011;23205;49.986;18.950;2022-08-06T10:50:06;2.70;;;1.15;;
37323;SDS011;23205;49.986;18.950;2022-08-06T10:55:10;3.97;;;1.25;;
37323;SDS011;23205;49.986;18.950;2022-08-06T11:00:12;3.90;;;0.90;;
37323;SDS011;23205;49.986;18.950;2022-08-06T11:05:17;2.63;;;0.80;;
37323;SDS011;23205;49.986;18.950;2022-08-06T11:15:35;4.28;;;1.10;;
37323;SDS011;23205;49.986;18.950;2022-08-06T11:20:41;2.30;;;0.90;;
37323;SDS011;23205;49.986;18.950;2022-08-06T11:30:53;3.35;;;1.42;;
37323;SDS011;23205;49.986;18.950;2022-08-06T11:35:55;4.68;;;2.10;;
37323;SDS011;23205;49.986;18.950;2022-08-06T11:41:00;5.90;;;2.33;;
37323;SDS011;23205;49.986;18.950;2022-08-06T11:51:38;6.05;;;2.42;;
37323;SDS011;23205;49.986;18.950;2022-08-06T12:02:11;5.82;;;2.50;;
37323;SDS011;23205;49.986;18.950;2022-08-06T12:07:40;5.93;;;3.05;;
37323;SDS011;23205;49.986;18.950;2022-08-06T12:12:48;3.85;;;1.80;;
37323;SDS011;23205;49.986;18.950;2022-08-06T12:23:01;4.55;;;1.88;;
37323;SDS011;23205;49.986;18.950;2022-08-06T12:28:04;4.57;;;2.00;;
37323;SDS011;23205;49.986;18.950;2022-08-06T12:33:08;5.63;;;2.30;;
37323;SDS011;23205;49.986;18.950;2022-08-06T12:38:09;3.35;;;1.80;;
37323;SDS011;23205;49.986;18.950;2022-08-06T12:43:11;4.43;;;2.20;;
37323;SDS011;23205;49.986;18.950;2022-08-06T12:48:13;4.15;;;1.80;;
37323;SDS011;23205;49.986;18.950;2022-08-06T12:53:14;6.82;;;1.58;;
37323;SDS011;23205;49.986;18.950;2022-08-06T12:58:17;4.13;;;2.25;;
37323;SDS011;23205;49.986;18.950;2022-08-06T13:03:20;4.35;;;1.80;;
37323;SDS011;23205;49.986;18.950;2022-08-06T13:08:24;3.40;;;2.30;;
37323;SDS011;23205;49.986;18.950;2022-08-06T13:13:38;4.65;;;2.70;;
37323;SDS011;23205;49.986;18.950;2022-08-06T13:19:02;7.07;;;2.67;;
37323;SDS011;23205;49.986;18.950;2022-08-06T13:24:21;6.32;;;2.50;;
37323;SDS011;23205;49.986;18.950;2022-08-06T13:29:27;5.05;;;2.88;;
37323;SDS011;23205;49.986;18.950;2022-08-06T13:34:28;4.97;;;3.22;;
37323;SDS011;23205;49.986;18.950;2022-08-06T13:39:30;7.63;;;3.45;;
37323;SDS011;23205;49.986;18.950;2022-08-06T13:44:33;10.27;;;4.05;;
37323;SDS011;23205;49.986;18.950;2022-08-06T13:49:35;9.02;;;5.05;;
37323;SDS011;23205;49.986;18.950;2022-08-06T13:54:36;10.00;;;5.38;;
37323;SDS011;23205;49.986;18.950;2022-08-06T13:59:37;10.10;;;5.50;;
37323;SDS011;23205;49.986;18.950;2022-08-06T14:04:38;13.48;;;6.35;;
37323;SDS011;23205;49.986;18.950;2022-08-06T14:09:39;8.55;;;5.20;;
37323;SDS011;23205;49.986;18.950;2022-08-06T14:14:40;9.05;;;6.00;;
37323;SDS011;23205;49.986;18.950;2022-08-06T14:19:41;8.68;;;5.82;;
37323;SDS011;23205;49.986;18.950;2022-08-06T14:24:43;8.20;;;5.88;;
37323;SDS011;23205;49.986;18.950;2022-08-06T14:29:44;10.32;;;6.13;;
37323;SDS011;23205;49.986;18.950;2022-08-06T14:34:45;8.43;;;6.20;;
37323;SDS011;23205;49.986;18.950;2022-08-06T14:39:46;12.32;;;7.45;;
37323;SDS011;23205;49.986;18.950;2022-08-06T14:44:48;10.40;;;7.22;;
37323;SDS011;23205;49.986;18.950;2022-08-06T14:50:03;9.77;;;6.00;;
37323;SDS011;23205;49.986;18.950;2022-08-06T14:55:05;9.95;;;6.75;;
37323;SDS011;23205;49.986;18.950;2022-08-06T15:00:07;11.93;;;7.15;;
37323;SDS011;23205;49.986;18.950;2022-08-06T15:05:09;13.60;;;6.63;;
37323;SDS011;23205;49.986;18.950;2022-08-06T15:10:10;11.68;;;6.82;;
37323;SDS011;23205;49.986;18.950;2022-08-06T15:15:11;10.10;;;6.82;;
37323;SDS011;23205;49.986;18.950;2022-08-06T15:20:12;11.38;;;7.05;;
37323;SDS011;23205;49.986;18.950;2022-08-06T15:25:15;14.02;;;7.70;;
37323;SDS011;23205;49.986;18.950;2022-08-06T15:30:18;16.30;;;8.30;;
37323;SDS011;23205;49.986;18.950;2022-08-06T15:35:19;12.75;;;7.60;;
37323;SDS011;23205;49.986;18.950;2022-08-06T15:40:20;12.10;;;7.88;;
37323;SDS011;23205;49.986;18.950;2022-08-06T15:45:21;16.58;;;7.47;;
37323;SDS011;23205;49.986;18.950;2022-08-06T15:50:22;10.82;;;7.63;;
37323;SDS011;23205;49.986;18.950;2022-08-06T15:55:23;14.18;;;6.97;;
37323;SDS011;23205;49.986;18.950;2022-08-06T16:00:24;14.50;;;8.35;;
37323;SDS011;23205;49.986;18.950;2022-08-06T16:05:25;18.25;;;9.63;;
37323;SDS011;23205;49.986;18.950;2022-08-06T16:10:27;13.07;;;7.80;;
37323;SDS011;23205;49.986;18.950;2022-08-06T16:15:29;15.13;;;7.45;;
37323;SDS011;23205;49.986;18.950;2022-08-06T16:20:30;10.95;;;7.20;;
37323;SDS011;23205;49.986;18.950;2022-08-06T16:25:31;10.38;;;7.28;;
37323;SDS011;23205;49.986;18.950;2022-08-06T16:30:32;12.23;;;7.80;;
37323;SDS011;23205;49.986;18.950;2022-08-06T16:35:34;28.38;;;14.60;;
37323;SDS011;23205;49.986;18.950;2022-08-06T16:40:35;17.45;;;9.48;;
37323;SDS011;23205;49.986;18.950;2022-08-06T16:45:36;14.18;;;8.23;;
37323;SDS011;23205;49.986;18.950;2022-08-06T16:50:36;13.98;;;9.10;;
37323;SDS011;23205;49.986;18.950;2022-08-06T16:55:37;16.90;;;10.43;;
37323;SDS011;23205;49.986;18.950;2022-08-06T17:00:38;17.77;;;11.32;;
37323;SDS011;23205;49.986;18.950;2022-08-06T17:05:39;25.05;;;15.65;;
37323;SDS011;23205;49.986;18.950;2022-08-06T17:10:40;19.13;;;12.43;;
37323;SDS011;23205;49.986;18.950;2022-08-06T17:15:41;25.38;;;15.77;;
37323;SDS011;23205;49.986;18.950;2022-08-06T17:20:44;23.00;;;15.95;;
37323;SDS011;23205;49.986;18.950;2022-08-06T17:25:50;20.52;;;13.25;;
37323;SDS011;23205;49.986;18.950;2022-08-06T17:30:52;23.23;;;13.77;;
37323;SDS011;23205;49.986;18.950;2022-08-06T17:35:53;22.55;;;15.07;;
37323;SDS011;23205;49.986;18.950;2022-08-06T17:40:54;24.40;;;16.17;;
37323;SDS011;23205;49.986;18.950;2022-08-06T17:45:55;22.60;;;15.00;;
37323;SDS011;23205;49.986;18.950;2022-08-06T17:50:56;23.95;;;15.02;;
37323;SDS011;23205;49.986;18.950;2022-08-06T17:55:57;20.38;;;15.25;;
37323;SDS011;23205;49.986;18.950;2022-08-06T18:01:00;24.13;;;14.82;;
37323;SDS011;23205;49.986;18.950;2022-08-06T18:06:01;25.80;;;15.52;;
37323;SDS011;23205;49.986;18.950;2022-08-06T18:11:03;28.35;;;18.58;;
37323;SDS011;23205;49.986;18.950;2022-08-06T18:16:05;26.15;;;16.40;;
37323;SDS011;23205;49.986;18.950;2022-08-06T18:21:06;22.75;;;16.60;;
37323;SDS011;23205;49.986;18.950;2022-08-06T18:26:07;24.13;;;16.50;;
37323;SDS011;23205;49.986;18.950;2022-08-06T18:31:08;21.98;;;14.95;;
37323;SDS011;23205;49.986;18.950;2022-08-06T18:36:10;23.45;;;15.93;;
37323;SDS011;23205;49.986;18.950;2022-08-06T18:41:10;22.08;;;15.43;;
37323;SDS011;23205;49.986;18.950;2022-08-06T18:46:11;20.15;;;15.00;;
37323;SDS011;23205;49.986;18.950;2022-08-06T18:51:12;24.95;;;16.83;;
37323;SDS011;23205;49.986;18.950;2022-08-06T18:56:19;29.70;;;16.92;;
37323;SDS011;23205;49.986;18.950;2022-08-06T19:01:26;22.80;;;16.60;;
37323;SDS011;23205;49.986;18.950;2022-08-06T19:06:27;24.15;;;17.13;;
37323;SDS011;23205;49.986;18.950;2022-08-06T19:11:28;28.70;;;17.85;;
37323;SDS011;23205;49.986;18.950;2022-08-06T19:16:29;28.48;;;18.27;;
37323;SDS011;23205;49.986;18.950;2022-08-06T19:21:30;25.88;;;18.65;;
37323;SDS011;23205;49.986;18.950;2022-08-06T19:26:32;31.45;;;21.77;;
37323;SDS011;23205;49.986;18.950;2022-08-06T19:31:33;29.35;;;18.17;;
37323;SDS011;23205;49.986;18.950;2022-08-06T19:36:35;25.63;;;17.15;;
37323;SDS011;23205;49.986;18.950;2022-08-06T19:41:35;25.08;;;17.15;;
37323;SDS011;23205;49.986;18.950;2022-08-06T19:46:36;27.02;;;16.75;;
37323;SDS011;23205;49.986;18.950;2022-08-06T19:51:37;24.08;;;17.30;;
37323;SDS011;23205;49.986;18.950;2022-08-06T19:56:38;26.75;;;17.63;;
37323;SDS011;23205;49.986;18.950;2022-08-06T20:01:39;24.17;;;16.67;;
37323;SDS011;23205;49.986;18.950;2022-08-06T20:06:40;23.48;;;17.42;;
37323;SDS011;23205;49.986;18.950;2022-08-06T20:11:41;27.17;;;17.88;;
37323;SDS011;23205;49.986;18.950;2022-08-06T20:16:42;27.85;;;18.38;;
37323;SDS011;23205;49.986;18.950;2022-08-06T20:21:43;28.52;;;18.08;;
37323;SDS011;23205;49.986;18.950;2022-08-06T20:26:44;30.20;;;19.27;;
37323;SDS011;23205;49.986;18.950;2022-08-06T20:31:45;29.30;;;20.17;;
37323;SDS011;23205;49.986;18.950;2022-08-06T20:36:46;30.92;;;19.05;;
37323;SDS011;23205;49.986;18.950;2022-08-06T20:41:47;30.55;;;19.50;;
37323;SDS011;23205;49.986;18.950;2022-08-06T20:46:48;30.27;;;19.48;;
37323;SDS011;23205;49.986;18.950;2022-08-06T20:51:49;27.20;;;18.05;;
37323;SDS011;23205;49.986;18.950;2022-08-06T20:56:50;26.95;;;18.58;;
37323;SDS011;23205;49.986;18.950;2022-08-06T21:01:51;23.98;;;15.85;;
37323;SDS011;23205;49.986;18.950;2022-08-06T21:06:52;24.95;;;17.20;;
37323;SDS011;23205;49.986;18.950;2022-08-06T21:11:53;26.10;;;16.50;;
37323;SDS011;23205;49.986;18.950;2022-08-06T21:16:54;22.35;;;16.67;;
37323;SDS011;23205;49.986;18.950;2022-08-06T21:21:54;22.73;;;15.95;;
37323;SDS011;23205;49.986;18.950;2022-08-06T21:26:55;30.33;;;19.83;;
37323;SDS011;23205;49.986;18.950;2022-08-06T21:31:56;27.02;;;15.95;;
37323;SDS011;23205;49.986;18.950;2022-08-06T21:36:58;23.52;;;16.13;;
37323;SDS011;23205;49.986;18.950;2022-08-06T21:42:00;23.65;;;15.35;;
37323;SDS011;23205;49.986;18.950;2022-08-06T21:47:00;22.95;;;15.45;;
37323;SDS011;23205;49.986;18.950;2022-08-06T21:52:01;19.90;;;14.65;;
37323;SDS011;23205;49.986;18.950;2022-08-06T21:57:02;20.40;;;14.43;;
37323;SDS011;23205;49.986;18.950;2022-08-06T22:02:04;26.13;;;15.73;;
37323;SDS011;23205;49.986;18.950;2022-08-06T22:07:05;25.35;;;16.92;;
37323;SDS011;23205;49.986;18.950;2022-08-06T22:12:06;28.23;;;19.90;;
37323;SDS011;23205;49.986;18.950;2022-08-06T22:17:07;29.02;;;20.20;;
37323;SDS011;23205;49.986;18.950;2022-08-06T22:22:08;30.10;;;20.02;;
37323;SDS011;23205;49.986;18.950;2022-08-06T22:27:09;29.08;;;19.60;;
37323;SDS011;23205;49.986;18.950;2022-08-06T22:32:10;27.55;;;19.35;;
37323;SDS011;23205;49.986;18.950;2022-08-06T22:37:13;34.70;;;21.30;;
37323;SDS011;23205;49.986;18.950;2022-08-06T22:42:14;32.13;;;20.77;;
37323;SDS011;23205;49.986;18.950;2022-08-06T22:47:15;30.58;;;19.13;;
37323;SDS011;23205;49.986;18.950;2022-08-06T22:52:16;32.03;;;21.13;;
37323;SDS011;23205;49.986;18.950;2022-08-06T22:57:17;29.45;;;20.27;;
37323;SDS011;23205;49.986;18.950;2022-08-06T23:02:18;40.40;;;22.98;;
37323;SDS011;23205;49.986;18.950;2022-08-06T23:07:19;31.20;;;21.17;;
37323;SDS011;23205;49.986;18.950;2022-08-06T23:12:20;33.00;;;22.38;;
37323;SDS011;23205;49.986;18.950;2022-08-06T23:17:21;37.80;;;24.00;;
37323;SDS011;23205;49.986;18.950;2022-08-06T23:22:22;34.83;;;22.52;;
37323;SDS011;23205;49.986;18.950;2022-08-06T23:27:25;36.22;;;24.92;;
37323;SDS011;23205;49.986;18.950;2022-08-06T23:32:26;37.35;;;23.50;;
37323;SDS011;23205;49.986;18.950;2022-08-06T23:37:27;35.72;;;23.05;;
37323;SDS011;23205;49.986;18.950;2022-08-06T23:42:28;37.97;;;22.83;;
37323;SDS011;23205;49.986;18.950;2022-08-06T23:47:28;36.10;;;22.25;;
37323;SDS011;23205;49.986;18.950;2022-08-06T23:52:29;39.13;;;23.35;;
37323;SDS011;23205;49.986;18.950;2022-08-06T23:57:30;43.20;;;25.08;;
